Tiempo atmosférico en la estación meteorológica de Castellote, Teruel (755 m.)

Fecha
DESCASC
Temp. máxima en grados centígrados (hora)
DESCASC
Temp. mínima en grados centígrados (hora)
DESCASC
Temp. media en grados centígrados
DESCASC
Racha de viento máxima en m/sg (hora)
DESCASC
Velocidad máxima media en intervalos de 10 minutos(hora)
DESCASC
Precipitaciones diarias en mm
DESCASC
Precipitaciones de 00:00 a 06:00 en mm
DESCASC
Precipitaciones de 06:00 a 12:00 en mm
DESCASC
Precipitaciones de 12:00 a 18:00 en mm
DESCASC
Precipitaciones de 18:00 a 24:00 en mm
DESCASC
23-11-2017 21.8 (15:00) 8.8 (00:00) 15.3 11.39 (15:20) 7.78 (18:40) 0 0 0 0 0
22-11-2017 19.1 (13:30) 4.8 (08:00) 12 6.94 (16:30) 3.61 (16:10) 0 0 0 0 0
21-11-2017 18.3 (14:40) 5.1 (08:00) 11.7 4.44 (13:30) 2.78 (22:20) 0 0 0 0 0
20-11-2017 18.9 (15:40) 3.2 (05:40) 11 4.44 (16:20) 2.78 (06:00) 0 0 0 0 0
19-11-2017 15.6 (15:00) 1.5 (00:00) 8.6 5 (15:50) 2.5 (02:40) 0 0 0 0 0
18-11-2017 16.1 (15:10) 4.1 (00:00) 10.1 8.33 (14:00) 4.44 (13:50) 0 0 0 0 0
17-11-2017 17.7 (15:10) 5.5 (00:00) 11.6 5 (02:50) 2.5 (06:50) 0 0 0 0 0
16-11-2017 15.9 (14:50) 3.9 (00:00) 9.9 4.72 (14:10) 2.5 (02:20) 0 0 0 0 0
15-11-2017 15.2 (14:50) 0.4 (00:00) 7.8 6.39 (00:10) 2.78 (00:10) 0 0 0 0 0
14-11-2017 11.6 (15:50) 3 (00:00) 7.3 18.06 (01:30) 7.5 (01:30) 0 0 0 0 0
13-11-2017 11.8 (00:00) 3.4 (00:00) 7.6 30.28 (07:40) 14.17 (07:40) 0 0 0 0 0
12-11-2017 16.8 (14:40) 8.5 (00:00) 12.6 18.33 (21:30) 10 (21:40) 0 0 0 0 0
11-11-2017 15.4 (13:00) 9.1 (00:00) 12.3 16.94 (09:00) 7.78 (01:10) 0 0 0 0 0
10-11-2017 12.9 (13:30) 4.5 (00:00) 8.7 16.39 (21:40) 8.33 (00:20) 0 0 0 0 0
09-11-2017 10.2 (13:10) 3.9 (00:00) 7 18.61 (02:00) 9.17 (21:50) 0 0 0 0 0
08-11-2017 12 (13:30) 4.2 (00:00) 8.1 16.39 (12:30) 8.33 (03:50) 0 0 0 0 0
07-11-2017 15.4 (16:20) 3.4 (00:00) 9.4 17.22 (08:40) 8.06 (08:10) 0 0 0 0 0
06-11-2017 10.3 (14:50) 4.7 (00:00) 7.5 25 (12:40) 12.78 (12:20) 0 0 0 0 0
05-11-2017 12.8 (14:50) 7.3 (00:00) 10.1 22.5 (05:40) 11.11 (11:10) 0.2 0.2 0 0 0
04-11-2017 18.4 (14:20) 11 (00:00) 14.7 10.83 (22:00) 6.11 (22:00) 1.8 1.6 0 0 0.2
03-11-2017 21.7 (14:40) 9.3 (00:00) 15.5 8.06 (15:40) 4.17 (15:40) 0 0 0 0 0
02-11-2017 21 (14:50) 9.8 (07:10) 15.4 6.39 (17:30) 3.06 (15:00) 0 0 0 0 0
01-11-2017 21.3 (13:50) 9.7 (00:00) 15.5 7.5 (16:10) 3.89 (14:00) 0 0 0 0 0
31-10-2017 17.5 (16:10) 4.9 (00:00) 11.2 7.22 (02:40) 4.17 (02:50) 0 0 0 0 0
30-10-2017 18.8 (14:50) 8.9 (00:00) 13.8 15 (00:20) 6.94 (01:30) 0 0 0 0 0
29-10-2017 19.5 (15:40) 6.6 (00:00) 13 14.17 (22:50) 7.5 (23:10) 0 0 0 0 0
28-10-2017 19.9 (17:10) 11.5 (00:00) 15.7 14.17 (01:30) 6.67 (10:00) 0 0 0 0 0
27-10-2017 25.2 (16:10) 12.7 (00:00) 19 15 (17:30) 7.5 (17:10) 0 0 0 0 0
26-10-2017 26.7 (15:20) 13.1 (00:00) 19.9 7.22 (14:20) 3.89 (16:50) 0 0 0 0 0
25-10-2017 27.6 (14:50) 11.9 (00:00) 19.8 7.78 (16:10) 4.72 (16:10) 0 0 0 0 0

Gráficas

Temp. máximas Temp. mínimas Temp. medias Precipitaciones Rachas de viento máximas Velocidades máximas media en intervalos de 10 minutos

Datos horarios

Fecha y hora oficial Temperatura (ºC) Velocidad del viento (km/h) Dirección del viento Racha (km/h) Dirección de racha Precipitación (mm) Presión (hPa) Tendencia (hPa) Humedad (%)
2017-11-23 23:00:00 14.3 14 Sudoeste 21 Sudoeste 0 -- -- 31
2017-11-23 22:00:00 13.2 6 Sudeste 13 Este 0 -- -- 32
2017-11-23 21:00:00 15.4 7 Oeste 13 Oeste 0 -- -- 29
2017-11-23 20:00:00 15.9 0 Calma 10 Oeste 0 -- -- 28
2017-11-23 19:00:00 17.4 13 Oeste 36 Oeste 0 -- -- 25
2017-11-23 18:00:00 17.8 11 Sudoeste 23 Sudoeste 0 -- -- 25
2017-11-23 17:00:00 19.2 15 Sudoeste 30 Sudoeste 0 -- -- 24
2017-11-23 16:00:00 20.6 19 Sudoeste 41 Sudoeste 0 -- -- 25
2017-11-23 15:00:00 21.8 15 Sudoeste 39 Sur 0 -- -- 21
2017-11-23 14:00:00 21.3 22 Sudoeste 39 Sudoeste 0 -- -- 22
2017-11-23 13:00:00 21 6 Este 13 Sur 0 -- -- 24
2017-11-23 12:00:00 17.9 5 Este 11 Noroeste 0 -- -- 30
2017-11-23 11:00:00 15.1 3 Este 10 Norte 0 -- -- 32
2017-11-23 10:00:00 13.6 3 Sudeste 9 Sudeste 0 -- -- 34
2017-11-23 09:00:00 12.6 3 Sudeste 11 Sudeste 0 -- -- 35
2017-11-23 08:00:00 11.2 3 Sur 9 Este 0 -- -- 36
2017-11-23 07:00:00 10.9 2 Noroeste 7 Oeste 0 -- -- 35
2017-11-23 06:00:00 10.6 0 Calma 9 Sudoeste 0 -- -- 35
2017-11-23 05:00:00 10.3 2 Nordeste 10 Este 0 -- -- 35
2017-11-23 04:00:00 10.1 5 Este 13 Este 0 -- -- 34
2017-11-23 03:00:00 9.4 5 Este 13 Este 0 -- -- 35
2017-11-23 02:00:00 9 9 Este 12 Este 0 -- -- 35
2017-11-23 01:00:00 9.7 5 Sudeste 11 Este 0 -- -- 34
2017-11-23 00:00:00 8.8 5 Este 12 Sudeste 0 -- -- 36
2017-11-22 23:00:00 9 6 Sudeste 13 Este 0 -- -- 37
2017-11-22 22:00:00 9 3 Este 10 Sur 0 -- -- 39
2017-11-22 21:00:00 9.6 5 Sudeste 10 Sudeste 0 -- -- 40
2017-11-22 20:00:00 10.9 2 Este 6 Este 0 -- -- 38
2017-11-22 19:00:00 11.8 2 Este 6 Oeste 0 -- -- 37
2017-11-22 18:00:00 12.9 5 Oeste 9 Oeste 0 -- -- 35
2017-11-22 17:00:00 15.7 4 Norte 25 Nordeste 0 -- -- 30
2017-11-22 16:00:00 17.1 12 Norte 24 Norte 0 -- -- 28
2017-11-22 15:00:00 18.7 9 Norte 19 Nordeste 0 -- -- 24
2017-11-22 14:00:00 18.6 10 Norte 20 Norte 0 -- -- 25
2017-11-22 13:00:00 18.8 5 Este 11 Este 0 -- -- 21
2017-11-22 12:00:00 16.5 4 Este 7 Este 0 -- -- 24
2017-11-22 11:00:00 13.7 2 Sur 5 Sur 0 -- -- 30
2017-11-22 10:00:00 10.4 2 Este 9 Nordeste 0 -- -- 34
2017-11-22 09:00:00 7.1 5 Este 10 Este 0 -- -- 39
2017-11-22 08:00:00 4.8 8 Este 12 Este 0 -- -- 44
2017-11-22 07:00:00 5.2 6 Este 8 Este 0 -- -- 43
2017-11-22 06:00:00 5.8 5 Este 10 Este 0 -- -- 42
2017-11-22 05:00:00 6.2 5 Este 7 Este 0 -- -- 41
2017-11-22 04:00:00 6.3 5 Este 8 Este 0 -- -- 41
2017-11-22 03:00:00 6.5 5 Este 10 Este 0 -- -- 42
2017-11-22 02:00:00 6.8 10 Este 12 Este 0 -- -- 41
2017-11-22 01:00:00 7.7 8 Este 9 Este 0 -- -- 39
2017-11-22 00:00:00 8 6 Este 12 Este 0 -- -- 38
2017-11-21 23:00:00 8.1 6 Este 12 Este 0 -- -- 40
2017-11-21 22:00:00 8.5 6 Este 10 Nordeste 0 -- -- 41
2017-11-21 21:00:00 9.2 6 Este 9 Este 0 -- -- 40
2017-11-21 20:00:00 11.2 3 Este 5 Este 0 -- -- 36
2017-11-21 19:00:00 12.4 0 Calma 6 Oeste 0 -- -- 33
2017-11-21 18:00:00 13.7 3 Sudoeste 12 Norte 0 -- -- 31
2017-11-21 17:00:00 17.4 5 Norte 12 Nordeste 0 -- -- 26
2017-11-21 16:00:00 17.5 3 Sudeste 13 Este 0 -- -- 26
2017-11-21 15:00:00 18 6 Nordeste 14 Norte 0 -- -- 26
2017-11-21 14:00:00 17.5 5 Norte 16 Nordeste 0 -- -- 26
2017-11-21 13:00:00 16.7 7 Norte 14 Norte 0 -- -- 28
2017-11-21 12:00:00 15.9 3 Sur 7 Sudeste 0 -- -- 27
2017-11-21 11:00:00 13.1 2 Este 6 Este 0 -- -- 31
2017-11-21 10:00:00 10.2 3 Este 8 Este 0 -- -- 34
2017-11-21 09:00:00 6.9 6 Este 10 Nordeste 0 -- -- 39
2017-11-21 08:00:00 5.1 9 Este 10 Este 0 -- -- 42
2017-11-21 07:00:00 5.5 6 Este 9 Este 0 -- -- 41
2017-11-21 06:00:00 5.8 8 Este 10 Este 0 -- -- 40
2017-11-21 05:00:00 6.1 8 Este 9 Este 0 -- -- 40
2017-11-21 04:00:00 6.1 6 Este 9 Este 0 -- -- 41
2017-11-21 03:00:00 6.6 6 Este 10 Nordeste 0 -- -- 40
2017-11-21 02:00:00 6.7 9 Este 11 Este 0 -- -- 40
2017-11-21 01:00:00 7.4 4 Este 8 Este 0 -- -- 40
2017-11-21 00:00:00 7.6 8 Este 10 Este 0 -- -- 41
2017-11-20 23:00:00 8.6 4 Este 7 Nordeste 0 -- -- 39
2017-11-20 22:00:00 9.5 4 Este 6 Sudeste 0 -- -- 37
2017-11-20 21:00:00 10.7 2 Sudeste 3 Sudeste 0 -- -- 36
2017-11-20 20:00:00 11.3 0 Calma 2 Sur 0 -- -- 35
2017-11-20 19:00:00 12.5 0 Calma 8 Oeste 0 -- -- 33
2017-11-20 18:00:00 14.2 3 Sudoeste 10 Norte 0 -- -- 30
2017-11-20 17:00:00 17.5 3 Norte 16 Norte 0 -- -- 25
2017-11-20 16:00:00 18.4 5 Nordeste 15 Nordeste 0 -- -- 24
2017-11-20 15:00:00 18.2 4 Este 12 Norte 0 -- -- 24
2017-11-20 14:00:00 17.5 3 Norte 10 Este 0 -- -- 24
2017-11-20 13:00:00 15.9 5 Este 9 Este 0 -- -- 27
2017-11-20 12:00:00 14.1 5 Este 8 Este 0 -- -- 28
2017-11-20 11:00:00 12.4 0 Calma 6 Este 0 -- -- 31
2017-11-20 10:00:00 8.9 4 Este 5 Este 0 -- -- 35
2017-11-20 09:00:00 6.5 4 Este 8 Este 0 -- -- 39
2017-11-20 08:00:00 4 5 Este 9 Este 0 -- -- 44
2017-11-20 07:00:00 3.6 5 Este 13 Nordeste 0 -- -- 46
2017-11-20 06:00:00 3.5 10 Nordeste 12 Nordeste 0 -- -- 47
2017-11-20 05:00:00 3.7 3 Este 6 Este 0 -- -- 49
2017-11-20 04:00:00 4.5 4 Nordeste 8 Este 0 -- -- 47
2017-11-20 03:00:00 4.5 6 Este 7 Nordeste 0 -- -- 48
2017-11-20 02:00:00 5.1 6 Este 9 Este 0 -- -- 48
2017-11-20 01:00:00 5 7 Este 9 Este 0 -- -- 51
2017-11-20 00:00:00 6 3 Este 7 Este 0 -- -- 50
2017-11-19 23:00:00 6.6 7 Nordeste 9 Nordeste 0 -- -- 53
2017-11-19 22:00:00 7.6 4 Nordeste 9 Este 0 -- -- 53
2017-11-19 21:00:00 8.4 2 Este 14 Norte 0 -- -- 53
2017-11-19 20:00:00 10.6 7 Noroeste 13 Noroeste 0 -- -- 40
2017-11-19 19:00:00 10.9 0 Calma 5 Sudoeste 0 -- -- 46
2017-11-19 18:00:00 11.6 0 Calma 5 Oeste 0 -- -- 45
2017-11-19 17:00:00 14.5 2 Norte 12 Nordeste 0 -- -- 39
2017-11-19 16:00:00 14.8 5 Este 18 Norte 0 -- -- 39
2017-11-19 15:00:00 15.6 4 Norte 15 Nordeste 0 -- -- 37
2017-11-19 14:00:00 14.9 5 Norte 15 Norte 0 -- -- 37
2017-11-19 13:00:00 13.5 4 Este 12 Este 0 -- -- 42
2017-11-19 12:00:00 12.2 3 Este 8 Este 0 -- -- 45
2017-11-19 11:00:00 10.4 3 Sudeste 5 Sur 0 -- -- 48
2017-11-19 10:00:00 7.1 2 Sudeste 5 Sudeste 0 -- -- 58
2017-11-19 09:00:00 4.2 2 Este 8 Este 0 -- -- 69
2017-11-19 08:00:00 1.6 6 Este 11 Este 0 -- -- 75
2017-11-19 07:00:00 1.7 4 Este 6 Este 0 -- -- 79
2017-11-19 06:00:00 2.3 4 Este 8 Este 0 -- -- 76
2017-11-19 05:00:00 2.8 3 Este 10 Este 0 -- -- 75
2017-11-19 04:00:00 3.4 3 Sudeste 8 Este 0 -- -- 73
2017-11-19 03:00:00 3.8 6 Este 13 Nordeste 0 -- -- 72
2017-11-19 02:00:00 4.3 7 Este 12 Este 0 -- -- 70
2017-11-19 01:00:00 5 7 Este 12 Este 0 -- -- 69
2017-11-19 00:00:00 6.5 3 Sudeste 18 Noroeste 0 -- -- 69
2017-11-18 23:00:00 8 3 Oeste 16 Oeste 0 -- -- 66
2017-11-18 22:00:00 9.4 11 Oeste 26 Oeste 0 -- -- 65
2017-11-18 21:00:00 9.5 5 Noroeste 16 Noroeste 0 -- -- 62
2017-11-18 20:00:00 10.1 3 Oeste 10 Norte 0 -- -- 58
2017-11-18 19:00:00 10.9 6 Noroeste 14 Noroeste 0 -- -- 53
2017-11-18 18:00:00 12.1 4 Norte 14 Oeste 0 -- -- 50
2017-11-18 17:00:00 15.5 4 Oeste 23 Noroeste 0 -- -- 41
2017-11-18 16:00:00 15.8 9 Oeste 23 Noroeste 0 -- -- 38
2017-11-18 15:00:00 15.8 9 Noroeste 28 Oeste 0 -- -- 37
2017-11-18 14:00:00 15 15 Noroeste 30 Noroeste 0 -- -- 38
2017-11-18 13:00:00 14.8 12 Noroeste 27 Noroeste 0 -- -- 36
2017-11-18 12:00:00 13 9 Oeste 26 Oeste 0 -- -- 40
2017-11-18 11:00:00 11.6 4 Sur 8 Sudeste 0 -- -- 41
2017-11-18 10:00:00 8.7 4 Este 8 Este 0 -- -- 48
2017-11-18 09:00:00 5.9 5 Este 8 Este 0 -- -- 55
2017-11-18 08:00:00 4.2 4 Este 11 Este 0 -- -- 59
2017-11-18 07:00:00 4.5 5 Este 8 Este 0 -- -- 58
2017-11-18 06:00:00 4.6 3 Sudeste 7 Sudeste 0 -- -- 57
2017-11-18 05:00:00 5.2 4 Este 8 Este 0 -- -- 55
2017-11-18 04:00:00 5.6 2 Sudeste 8 Este 0 -- -- 54
2017-11-18 03:00:00 5.8 6 Este 8 Este 0 -- -- 53
2017-11-18 02:00:00 6.6 3 Sudeste 6 Este 0 -- -- 52
2017-11-18 01:00:00 7 6 Este 8 Nordeste 0 -- -- 52
2017-11-18 00:00:00 7.5 5 Este 7 Este 0 -- -- 50
2017-11-17 23:00:00 8.1 3 Sudeste 8 Este 0 -- -- 49
2017-11-17 22:00:00 9 3 Nordeste 6 Nordeste 0 -- -- 47
2017-11-17 21:00:00 9.9 3 Sudeste 5 Este 0 -- -- 45
2017-11-17 20:00:00 10.7 4 Este 8 Sudeste 0 -- -- 44
2017-11-17 19:00:00 12.2 3 Oeste 10 Oeste 0 -- -- 40
2017-11-17 18:00:00 13.1 8 Norte 14 Norte 0 -- -- 38
2017-11-17 17:00:00 15.8 4 Nordeste 18 Sudoeste 0 -- -- 33
2017-11-17 16:00:00 17 8 Este 15 Este 0 -- -- 31
2017-11-17 15:00:00 17.5 4 Este 18 Este 0 -- -- 30
2017-11-17 14:00:00 17.5 5 Norte 16 Este 0 -- -- 30
2017-11-17 13:00:00 16.8 4 Nordeste 14 Noroeste 0 -- -- 31
2017-11-17 12:00:00 15.9 4 Sudeste 14 Este 0 -- -- 32
2017-11-17 11:00:00 13.2 3 Sudeste 10 Este 0 -- -- 37
2017-11-17 10:00:00 10.1 3 Este 10 Este 0 -- -- 43
2017-11-17 09:00:00 7.5 8 Este 11 Este 0 -- -- 49
2017-11-17 08:00:00 5.5 9 Este 12 Nordeste 0 -- -- 54
2017-11-17 07:00:00 5.8 4 Este 11 Nordeste 0 -- -- 53
2017-11-17 06:00:00 6.6 2 Este 11 Norte 0 -- -- 51
2017-11-17 05:00:00 7.7 2 Sudeste 14 Norte 0 -- -- 48
2017-11-17 04:00:00 7.1 4 Nordeste 16 Noroeste 0 -- -- 50
2017-11-17 03:00:00 7.9 4 Sudeste 18 Norte 0 -- -- 47
2017-11-17 02:00:00 7.3 4 Sudeste 9 Sudeste 0 -- -- 49
2017-11-17 01:00:00 8.1 3 Este 8 Este 0 -- -- 46
2017-11-17 00:00:00 7.7 6 Nordeste 10 Nordeste 0 -- -- 47
2017-11-16 23:00:00 7.7 5 Este 10 Nordeste 0 -- -- 46
2017-11-16 22:00:00 8.2 0 Calma 5 Este 0 -- -- 45
2017-11-16 21:00:00 9.3 4 Este 7 Este 0 -- -- 43
2017-11-16 20:00:00 9.4 3 Nordeste 7 Este 0 -- -- 43
2017-11-16 19:00:00 9.9 0 Calma 8 Norte 0 -- -- 41
2017-11-16 18:00:00 10.6 3 Norte 10 Norte 0 -- -- 39
2017-11-16 17:00:00 13.4 5 Norte 15 Norte 0 -- -- 34
2017-11-16 16:00:00 14.3 6 Nordeste 16 Este 0 -- -- 33
2017-11-16 15:00:00 15.7 6 Este 17 Nordeste 0 -- -- 30
2017-11-16 14:00:00 15.8 6 Nordeste 16 Nordeste 0 -- -- 29
2017-11-16 13:00:00 14.7 5 Este 13 Norte 0 -- -- 31
2017-11-16 12:00:00 13.6 3 Norte 12 Este 0 -- -- 33
2017-11-16 11:00:00 11.7 3 Este 7 Nordeste 0 -- -- 35
2017-11-16 10:00:00 8.4 5 Este 9 Este 0 -- -- 41
2017-11-16 09:00:00 6.2 6 Este 9 Este 0 -- -- 45
2017-11-16 08:00:00 4.1 4 Este 9 Nordeste 0 -- -- 50
2017-11-16 07:00:00 4.4 6 Este 8 Nordeste 0 -- -- 48
2017-11-16 06:00:00 4.6 2 Sudeste 9 Este 0 -- -- 46
2017-11-16 05:00:00 5.1 6 Este 8 Nordeste 0 -- -- 44
2017-11-16 04:00:00 5.8 3 Este 7 Este 0 -- -- 41
2017-11-16 03:00:00 5.5 7 Este 11 Nordeste 0 -- -- 42
2017-11-16 02:00:00 5.3 8 Nordeste 10 Nordeste 0 -- -- 43
2017-11-16 01:00:00 5.7 3 Este 7 Nordeste 0 -- -- 44
2017-11-16 00:00:00 6.3 3 Este 5 Nordeste 0 -- -- 44
2017-11-15 23:00:00 6.7 5 Este 6 Este 0 -- -- 43
2017-11-15 22:00:00 7.9 0 Calma 5 Oeste 0 -- -- 40
2017-11-15 21:00:00 7.9 2 Oeste 6 Sudoeste 0 -- -- 40
2017-11-15 20:00:00 8.9 4 Oeste 10 Norte 0 -- -- 38
2017-11-15 19:00:00 10.6 0 Calma 4 Sudoeste 0 -- -- 34
2017-11-15 18:00:00 11.7 0 Calma 3 Oeste 0 -- -- 32
2017-11-15 17:00:00 13.7 3 Sudoeste 9 Norte 0 -- -- 29
2017-11-15 16:00:00 13.3 3 Norte 13 Norte 0 -- -- 29
2017-11-15 15:00:00 15.2 4 Norte 10 Norte 0 -- -- 26
2017-11-15 14:00:00 14.4 5 Nordeste 13 Norte 0 -- -- 27
2017-11-15 13:00:00 13.4 3 Este 8 Sur 0 -- -- 29
2017-11-15 12:00:00 10.1 3 Este 8 Este 0 -- -- 33
2017-11-15 11:00:00 7.5 2 Sudeste 7 Sudeste 0 -- -- 41
2017-11-15 10:00:00 5 2 Sudeste 5 Sudeste 0 -- -- 47
2017-11-15 09:00:00 2.2 0 Calma 6 Este 0 -- -- 54
2017-11-15 08:00:00 0.5 4 Nordeste 5 Nordeste 0 -- -- 59
2017-11-15 07:00:00 0.5 0 Calma 4 Nordeste 0 -- -- 57
2017-11-15 06:00:00 0.7 0 Calma 6 Nordeste 0 -- -- 58
2017-11-15 05:00:00 1 3 Nordeste 4 Este 0 -- -- 57
2017-11-15 04:00:00 1.4 2 Este 8 Este 0 -- -- 55
2017-11-15 03:00:00 2 4 Este 6 Este 0 -- -- 54
2017-11-15 02:00:00 2.6 4 Este 12 Nordeste 0 -- -- 53
2017-11-15 01:00:00 3.8 5 Este 23 Noroeste 0 -- -- 50
2017-11-15 00:00:00 5.3 6 Sur 30 Oeste 0 -- -- 47
2017-11-14 23:00:00 5.8 10 Oeste 28 Oeste 0 -- -- 46
2017-11-14 22:00:00 6 14 Oeste 24 Oeste 0 -- -- 45
2017-11-14 21:00:00 6.1 5 Oeste 14 Norte 0 -- -- 46
2017-11-14 20:00:00 6.8 4 Sur 11 Sudoeste 0 -- -- 42
2017-11-14 19:00:00 7.6 4 Oeste 14 Noroeste 0 -- -- 40
2017-11-14 18:00:00 8.7 2 Este 31 Oeste 0 -- -- 38
2017-11-14 17:00:00 10.8 14 Oeste 29 Oeste 0 -- -- 33
2017-11-14 16:00:00 11.1 17 Noroeste 38 Noroeste 0 -- -- 33
2017-11-14 15:00:00 11 16 Oeste 38 Oeste 0 -- -- 33
2017-11-14 14:00:00 10.6 13 Oeste 34 Oeste 0 -- -- 34
2017-11-14 13:00:00 9.8 17 Noroeste 36 Oeste 0 -- -- 34
2017-11-14 12:00:00 8.6 16 Oeste 41 Oeste 0 -- -- 35
2017-11-14 11:00:00 7.3 17 Oeste 52 Norte 0 -- -- 37
2017-11-14 10:00:00 6.3 13 Noroeste 52 Noroeste 0 -- -- 40
2017-11-14 09:00:00 4.8 15 Sudeste 59 Noroeste 0 -- -- 45
2017-11-14 08:00:00 3.5 14 Noroeste 39 Oeste 0 -- -- 50
2017-11-14 07:00:00 3 6 Sudeste 30 Oeste 0 -- -- 51
2017-11-14 06:00:00 3.2 10 Oeste 36 Sudoeste 0 -- -- 54
2017-11-14 05:00:00 3.1 9 Oeste 36 Oeste 0 -- -- 60
2017-11-14 04:00:00 3.1 13 Oeste 31 Noroeste 0 -- -- 61
2017-11-14 03:00:00 3.1 9 Oeste 36 Oeste 0 -- -- 64
2017-11-14 02:00:00 3.2 11 Este 65 Noroeste 0 -- -- 64
2017-11-14 01:00:00 3.3 13 Norte 51 Oeste 0 -- -- 64
2017-11-14 00:00:00 3.4 17 Noroeste 38 Oeste 0 -- -- 64
2017-11-13 23:00:00 3.5 18 Norte 71 Oeste 0 -- -- 64
2017-11-13 22:00:00 3.6 39 Oeste 65 Oeste 0 -- -- 63
2017-11-13 21:00:00 3.9 42 Oeste 74 Oeste 0 -- -- 59
2017-11-13 20:00:00 4.2 27 Noroeste 56 Noroeste 0 -- -- 57
2017-11-13 19:00:00 4.9 18 Oeste 42 Oeste 0 -- -- 50
2017-11-13 18:00:00 5.7 18 Oeste 46 Oeste 0 -- -- 44
2017-11-13 17:00:00 7.6 19 Oeste 48 Noroeste 0 -- -- 40
2017-11-13 16:00:00 8.8 16 Oeste 49 Noroeste 0 -- -- 38
2017-11-13 15:00:00 9.1 21 Noroeste 58 Noroeste 0 -- -- 37
2017-11-13 14:00:00 8.6 32 Oeste 66 Oeste 0 -- -- 39
2017-11-13 13:00:00 8.1 28 Oeste 58 Oeste 0 -- -- 39
2017-11-13 12:00:00 8.3 24 Noroeste 66 Oeste 0 -- -- 42
2017-11-13 11:00:00 7.3 31 Oeste 78 Oeste 0 -- -- 51
2017-11-13 10:00:00 6.7 36 Oeste 89 Oeste 0 -- -- 58
2017-11-13 09:00:00 6.2 45 Oeste 84 Noroeste 0 -- -- 70
2017-11-13 08:00:00 6.5 36 Noroeste 109 Noroeste 0 -- -- 66
2017-11-13 07:00:00 7.2 35 Oeste 84 Oeste 0 -- -- 62
2017-11-13 06:00:00 7.8 33 Noroeste 89 Oeste 0 -- -- 57
2017-11-13 05:00:00 8.1 32 Noroeste 73 Oeste 0 -- -- 65
2017-11-13 04:00:00 9 29 Noroeste 77 Norte 0 -- -- 64
2017-11-13 03:00:00 10.8 27 Oeste 71 Norte 0 -- -- 68
2017-11-13 02:00:00 11.5 30 Noroeste 67 Oeste 0 -- -- 65
2017-11-13 01:00:00 11.6 28 Oeste 69 Oeste 0 -- -- 65
2017-11-13 00:00:00 11.8 26 Oeste 62 Noroeste 0 -- -- 65
2017-11-12 23:00:00 11.9 28 Oeste 62 Noroeste 0 -- -- 65
2017-11-12 22:00:00 12.1 21 Oeste 66 Oeste 0 -- -- 63
2017-11-12 21:00:00 12.2 30 Oeste 56 Oeste 0 -- -- 61
2017-11-12 20:00:00 11.6 19 Oeste 45 Noroeste 0 -- -- 62
2017-11-12 19:00:00 11.9 23 Oeste 44 Noroeste 0 -- -- 61
2017-11-12 18:00:00 12.8 14 Oeste 48 Oeste 0 -- -- 58
2017-11-12 17:00:00 15 20 Oeste 48 Noroeste 0 -- -- 48
2017-11-12 16:00:00 15.7 24 Noroeste 49 Noroeste 0 -- -- 44
2017-11-12 15:00:00 16.2 20 Oeste 49 Oeste 0 -- -- 45
2017-11-12 14:00:00 15.5 21 Oeste 39 Noroeste 0 -- -- 48
2017-11-12 13:00:00 15 15 Oeste 39 Oeste 0 -- -- 50
2017-11-12 12:00:00 13.8 16 Noroeste 37 Oeste 0 -- -- 53
2017-11-12 11:00:00 12.4 15 Noroeste 38 Sudoeste 0 -- -- 59
2017-11-12 10:00:00 10.8 17 Oeste 40 Oeste 0 -- -- 63
2017-11-12 09:00:00 9.7 9 Oeste 40 Noroeste 0 -- -- 68
2017-11-12 08:00:00 8.8 12 Oeste 36 Sudoeste 0 -- -- 70
2017-11-12 07:00:00 9 10 Oeste 27 Sudoeste 0 -- -- 69
2017-11-12 06:00:00 9.1 8 Oeste 33 Oeste 0 -- -- 69
2017-11-12 05:00:00 9.1 8 Sudoeste 27 Sudoeste 0 -- -- 68
2017-11-12 04:00:00 8.5 5 Este 22 Oeste 0 -- -- 69
2017-11-12 03:00:00 9.3 10 Oeste 30 Oeste 0 -- -- 67
2017-11-12 02:00:00 9.1 9 Oeste 26 Noroeste 0 -- -- 69
2017-11-12 01:00:00 9 9 Noroeste 22 Noroeste 0 -- -- 70
2017-11-12 00:00:00 9.1 3 Sudeste 18 Oeste 0 -- -- 69
2017-11-11 23:00:00 9.5 9 Nordeste 37 Noroeste 0 -- -- 67
2017-11-11 22:00:00 9.6 7 Noroeste 26 Norte 0 -- -- 67
2017-11-11 21:00:00 10 9 Noroeste 27 Norte 0 -- -- 66
2017-11-11 20:00:00 10.6 10 Noroeste 23 Noroeste 0 -- -- 64
2017-11-11 19:00:00 11.4 12 Oeste 26 Noroeste 0 -- -- 64
2017-11-11 18:00:00 12.4 15 Oeste 35 Oeste 0 -- -- 60
2017-11-11 17:00:00 14.1 10 Oeste 46 Oeste 0 -- -- 55
2017-11-11 16:00:00 14.1 14 Noroeste 40 Noroeste 0 -- -- 56
2017-11-11 15:00:00 14.6 16 Oeste 36 Sudoeste 0 -- -- 55
2017-11-11 14:00:00 14.9 15 Noroeste 45 Noroeste 0 -- -- 53
2017-11-11 13:00:00 15.4 12 Noroeste 37 Oeste 0 -- -- 54
2017-11-11 12:00:00 13.6 19 Noroeste 45 Noroeste 0 -- -- 60
2017-11-11 11:00:00 12.3 22 Oeste 54 Noroeste 0 -- -- 64
2017-11-11 10:00:00 11.4 26 Oeste 53 Oeste 0 -- -- 68
2017-11-11 09:00:00 10.5 24 Oeste 61 Oeste 0 -- -- 71
2017-11-11 08:00:00 9.5 17 Oeste 57 Oeste 0 -- -- 74
2017-11-11 07:00:00 9.3 12 Oeste 49 Noroeste 0 -- -- 75
2017-11-11 06:00:00 9.5 21 Oeste 46 Noroeste 0 -- -- 73
2017-11-11 05:00:00 9.4 24 Oeste 45 Oeste 0 -- -- 72
2017-11-11 04:00:00 9.3 24 Oeste 53 Oeste 0 -- -- 73
2017-11-11 03:00:00 9.3 25 Oeste 54 Sudoeste 0 -- -- 74
2017-11-11 02:00:00 9.4 19 Oeste 57 Oeste 0 -- -- 74
2017-11-11 01:00:00 9.6 25 Oeste 43 Oeste 0 -- -- 74
2017-11-11 00:00:00 9.9 21 Oeste 37 Oeste 0 -- -- 74
2017-11-10 23:00:00 10.2 17 Oeste 51 Noroeste 0 -- -- 74
2017-11-10 22:00:00 10.5 28 Oeste 59 Oeste 0 -- -- 74
2017-11-10 21:00:00 10.7 16 Oeste 53 Noroeste 0 -- -- 73
2017-11-10 20:00:00 10.9 15 Oeste 49 Noroeste 0 -- -- 72
2017-11-10 19:00:00 11 12 Noroeste 38 Noroeste 0 -- -- 69
2017-11-10 18:00:00 11.3 18 Noroeste 51 Noroeste 0 -- -- 64
2017-11-10 17:00:00 11.8 22 Noroeste 46 Norte 0 -- -- 61
2017-11-10 16:00:00 12 18 Noroeste 35 Norte 0 -- -- 61
2017-11-10 15:00:00 12.3 15 Oeste 41 Noroeste 0 -- -- 58
2017-11-10 14:00:00 12.2 15 Noroeste 48 Oeste 0 -- -- 58
2017-11-10 13:00:00 12 20 Noroeste 50 Oeste 0 -- -- 60
2017-11-10 12:00:00 11.1 18 Noroeste 37 Norte 0 -- -- 56
2017-11-10 11:00:00 9.4 10 Noroeste 36 Oeste 0 -- -- 59
2017-11-10 10:00:00 8.1 9 Noroeste 28 Oeste 0 -- -- 59
2017-11-10 09:00:00 6.5 11 Noroeste 36 Norte 0 -- -- 63
2017-11-10 08:00:00 4.9 10 Noroeste 33 Noroeste 0 -- -- 67
2017-11-10 07:00:00 4.6 6 Oeste 26 Noroeste 0 -- -- 71
2017-11-10 06:00:00 4.7 5 Oeste 44 Oeste 0 -- -- 71
2017-11-10 05:00:00 4.8 28 Oeste 48 Oeste 0 -- -- 73
2017-11-10 04:00:00 4.9 24 Oeste 51 Oeste 0 -- -- 73
2017-11-10 03:00:00 4.9 14 Oeste 43 Oeste 0 -- -- 73
2017-11-10 02:00:00 5 22 Oeste 53 Oeste 0 -- -- 73
2017-11-10 01:00:00 5 24 Oeste 50 Oeste 0 -- -- 73
2017-11-10 00:00:00 5.1 20 Oeste 57 Oeste 0 -- -- 73
2017-11-09 23:00:00 5.4 29 Oeste 53 Oeste 0 -- -- 72
2017-11-09 22:00:00 5.7 32 Oeste 59 Oeste 0 -- -- 72
2017-11-09 21:00:00 5.9 26 Oeste 48 Noroeste 0 -- -- 71
2017-11-09 20:00:00 6.3 30 Oeste 65 Noroeste 0 -- -- 69
2017-11-09 19:00:00 6.8 23 Oeste 41 Oeste 0 -- -- 67
2017-11-09 18:00:00 7.7 21 Noroeste 53 Noroeste 0 -- -- 62
2017-11-09 17:00:00 8.7 17 Noroeste 41 Noroeste 0 -- -- 58
2017-11-09 16:00:00 9 18 Noroeste 43 Oeste 0 -- -- 55
2017-11-09 15:00:00 9.6 18 Oeste 44 Oeste 0 -- -- 54
2017-11-09 14:00:00 9 18 Noroeste 49 Norte 0 -- -- 56
2017-11-09 13:00:00 10.1 18 Noroeste 45 Oeste 0 -- -- 52
2017-11-09 12:00:00 8 22 Oeste 41 Oeste 0 -- -- 59
2017-11-09 11:00:00 7.6 17 Oeste 46 Oeste 0 -- -- 61
2017-11-09 10:00:00 6.4 27 Oeste 56 Noroeste 0 -- -- 66
2017-11-09 09:00:00 5.2 22 Oeste 55 Oeste 0 -- -- 70
2017-11-09 08:00:00 4.8 22 Oeste 45 Oeste 0 -- -- 71
2017-11-09 07:00:00 4.6 19 Oeste 55 Oeste 0 -- -- 70
2017-11-09 06:00:00 4.6 28 Oeste 58 Oeste 0 -- -- 69
2017-11-09 05:00:00 4.3 15 Oeste 51 Oeste 0 -- -- 70
2017-11-09 04:00:00 4.1 21 Noroeste 42 Oeste 0 -- -- 68
2017-11-09 03:00:00 4 14 Oeste 47 Oeste 0 -- -- 69
2017-11-09 02:00:00 4.1 27 Noroeste 67 Noroeste 0 -- -- 68
2017-11-09 01:00:00 4 22 Oeste 46 Oeste 0 -- -- 68
2017-11-09 00:00:00 4.3 22 Oeste 48 Noroeste 0 -- -- 69
2017-11-08 23:00:00 4.2 10 Oeste 33 Oeste 0 -- -- 72
2017-11-08 22:00:00 4.7 12 Oeste 52 Oeste 0 -- -- 71
2017-11-08 21:00:00 5.2 18 Oeste 41 Noroeste 0 -- -- 70
2017-11-08 20:00:00 5.9 11 Noroeste 36 Noroeste 0 -- -- 66
2017-11-08 19:00:00 6.6 23 Oeste 43 Oeste 0 -- -- 66
2017-11-08 18:00:00 8 20 Oeste 44 Noroeste 0 -- -- 56
2017-11-08 17:00:00 8.6 19 Oeste 43 Oeste 0 -- -- 55
2017-11-08 16:00:00 9.4 20 Oeste 51 Oeste 0 -- -- 51
2017-11-08 15:00:00 11.2 20 Oeste 53 Norte 0 -- -- 46
2017-11-08 14:00:00 10.4 19 Oeste 55 Noroeste 0 -- -- 46
2017-11-08 13:00:00 10.9 25 Oeste 59 Noroeste 0 -- -- 49
2017-11-08 12:00:00 9.9 20 Oeste 55 Oeste 0 -- -- 53
2017-11-08 11:00:00 9.8 25 Noroeste 50 Noroeste 0 -- -- 53
2017-11-08 10:00:00 8.6 20 Oeste 46 Noroeste 0 -- -- 58
2017-11-08 09:00:00 7.9 18 Oeste 38 Noroeste 0 -- -- 63
2017-11-08 08:00:00 7.2 15 Oeste 57 Oeste 0 -- -- 66
2017-11-08 07:00:00 7.1 21 Oeste 57 Oeste 0 -- -- 67
2017-11-08 06:00:00 7.3 23 Oeste 43 Sudoeste 0 -- -- 68
2017-11-08 05:00:00 8.1 15 Oeste 43 Oeste 0 -- -- 70
2017-11-08 04:00:00 9 21 Oeste 56 Oeste 0 -- -- 70
2017-11-08 03:00:00 9.3 27 Oeste 52 Noroeste 0 -- -- 66
2017-11-08 02:00:00 9.1 18 Oeste 36 Oeste 0 -- -- 66
2017-11-08 01:00:00 8.8 5 Sudoeste 32 Noroeste 0 -- -- 61
2017-11-08 00:00:00 8.4 11 Oeste 30 Noroeste 0 -- -- 61
2017-11-07 23:00:00 8.4 5 Sudoeste 42 Noroeste 0 -- -- 59
2017-11-07 22:00:00 9.2 10 Sudoeste 40 Oeste 0 -- -- 57
2017-11-07 21:00:00 9.8 17 Oeste 42 Oeste 0 -- -- 54
2017-11-07 20:00:00 10.8 22 Oeste 50 Oeste 0 -- -- 46
2017-11-07 19:00:00 11.9 14 Noroeste 27 Noroeste 0 -- -- 33
2017-11-07 18:00:00 12.6 5 Oeste 28 Oeste 0 -- -- 26
2017-11-07 17:00:00 14.8 10 Noroeste 35 Noroeste 0 -- -- 18
2017-11-07 16:00:00 14.9 9 Oeste 48 Oeste 0 -- -- 16
2017-11-07 15:00:00 13.9 17 Noroeste 40 Noroeste 0 -- -- 23
2017-11-07 14:00:00 13.4 13 Oeste 29 Oeste 0 -- -- 23
2017-11-07 13:00:00 11.9 14 Oeste 33 Noroeste 0 -- -- 24
2017-11-07 12:00:00 9.5 15 Oeste 35 Oeste 0 -- -- 31
2017-11-07 11:00:00 8.4 5 Sudoeste 39 Oeste 0 -- -- 34
2017-11-07 10:00:00 6.7 19 Oeste 56 Sudoeste 0 -- -- 39
2017-11-07 09:00:00 5.3 24 Oeste 62 Oeste 0 -- -- 42
2017-11-07 08:00:00 4.1 28 Oeste 60 Oeste 0 -- -- 53
2017-11-07 07:00:00 3.6 23 Oeste 46 Oeste 0 -- -- 62
2017-11-07 06:00:00 3.4 11 Noroeste 46 Oeste 0 -- -- 61
2017-11-07 05:00:00 3.5 12 Oeste 39 Noroeste 0 -- -- 64
2017-11-07 04:00:00 4 9 Oeste 45 Oeste 0 -- -- 62
2017-11-07 03:00:00 4.3 22 Oeste 54 Noroeste 0 -- -- 68
2017-11-07 02:00:00 4.4 19 Oeste 61 Oeste 0 -- -- 62
2017-11-07 01:00:00 4.4 12 Noroeste 37 Oeste 0 -- -- 66
2017-11-07 00:00:00 4.7 14 Noroeste 40 Oeste 0 -- -- 63
2017-11-06 23:00:00 5.1 21 Oeste 65 Oeste 0 -- -- 68
2017-11-06 22:00:00 5.5 33 Oeste 69 Oeste 0 -- -- 63
2017-11-06 21:00:00 5.9 34 Oeste 70 Noroeste 0 -- -- 64
2017-11-06 20:00:00 6.3 28 Oeste 65 Oeste 0 -- -- 67
2017-11-06 19:00:00 6.6 24 Oeste 64 Noroeste 0 -- -- 67
2017-11-06 18:00:00 7.1 15 Oeste 62 Oeste 0 -- -- 62
2017-11-06 17:00:00 8.3 24 Oeste 69 Noroeste 0 -- -- 59
2017-11-06 16:00:00 9.6 35 Oeste 76 Noroeste 0 -- -- 52
2017-11-06 15:00:00 9.9 31 Oeste 73 Noroeste 0 -- -- 50
2017-11-06 14:00:00 9.8 37 Oeste 78 Oeste 0 -- -- 50
2017-11-06 13:00:00 9.6 37 Oeste 90 Sudoeste 0 -- -- 49
2017-11-06 12:00:00 9 37 Oeste 83 Noroeste 0 -- -- 54
2017-11-06 11:00:00 8.1 35 Oeste 82 Noroeste 0 -- -- 58
2017-11-06 10:00:00 7.4 29 Oeste 74 Noroeste 0 -- -- 62
2017-11-06 09:00:00 6.6 33 Oeste 75 Sudoeste 0 -- -- 63
2017-11-06 08:00:00 6 32 Oeste 85 Oeste 0 -- -- 68
2017-11-06 07:00:00 5.8 32 Oeste 76 Oeste 0 -- -- 70
2017-11-06 06:00:00 5.9 26 Oeste 76 Noroeste 0 -- -- 75
2017-11-06 05:00:00 6.2 30 Oeste 66 Norte 0 -- -- 70
2017-11-06 04:00:00 6.5 36 Noroeste 65 Noroeste 0 -- -- 68
2017-11-06 03:00:00 6.5 24 Oeste 58 Norte 0 -- -- 76
2017-11-06 02:00:00 6.9 25 Oeste 60 Oeste 0 -- -- 71
2017-11-06 01:00:00 7.3 32 Oeste 68 Oeste 0 -- -- 69
2017-11-06 00:00:00 7.3 29 Oeste 58 Noroeste 0 -- -- 70
2017-11-05 23:00:00 7.5 21 Oeste 51 Oeste 0 -- -- 69
2017-11-05 22:00:00 7.7 19 Noroeste 43 Oeste 0 -- -- 69
2017-11-05 21:00:00 7.9 17 Noroeste 53 Oeste 0 -- -- 67
2017-11-05 20:00:00 8.3 19 Oeste 49 Oeste 0 -- -- 67
2017-11-05 19:00:00 9 24 Oeste 50 Oeste 0 -- -- 63
2017-11-05 18:00:00 9.8 22 Noroeste 73 Noroeste 0 -- -- 58
2017-11-05 17:00:00 11.4 23 Noroeste 51 Oeste 0 -- -- 52
2017-11-05 16:00:00 12.1 18 Noroeste 52 Oeste 0 -- -- 49
2017-11-05 15:00:00 12.7 16 Oeste 60 Noroeste 0 -- -- 48
2017-11-05 14:00:00 12.2 26 Oeste 71 Oeste 0 -- -- 51
2017-11-05 13:00:00 11.7 31 Oeste 58 Oeste 0 -- -- 53
2017-11-05 12:00:00 11.2 25 Oeste 63 Oeste 0 -- -- 56
2017-11-05 11:00:00 10.3 35 Oeste 80 Oeste 0 -- -- 59
2017-11-05 10:00:00 9.9 25 Oeste 73 Oeste 0 -- -- 63
2017-11-05 09:00:00 9.3 37 Oeste 72 Oeste 0 -- -- 68
2017-11-05 08:00:00 8.9 26 Oeste 72 Oeste 0 -- -- 72
2017-11-05 07:00:00 9.5 31 Oeste 69 Oeste 0 -- -- 73
2017-11-05 06:00:00 10.2 39 Oeste 81 Oeste 0 -- -- 72
2017-11-05 05:00:00 10.6 34 Oeste 72 Noroeste 0.2 -- -- 74
2017-11-05 04:00:00 10.7 30 Oeste 52 Oeste 0 -- -- 74
2017-11-05 03:00:00 10.6 25 Oeste 45 Oeste 0 -- -- 77
2017-11-05 02:00:00 10.6 19 Oeste 41 Oeste 0 -- -- 79
2017-11-05 01:00:00 10.9 18 Oeste 42 Oeste 0 -- -- 79
2017-11-05 00:00:00 11.1 14 Oeste 37 Oeste 0.2 -- -- 83
2017-11-04 23:00:00 12.1 13 Oeste 37 Oeste 0 -- -- 75
2017-11-04 22:00:00 12.6 22 Oeste 39 Noroeste 0 -- -- 66
2017-11-04 21:00:00 12.8 12 Oeste 29 Sudoeste 0 -- -- 64
2017-11-04 20:00:00 13.3 8 Sudoeste 27 Oeste 0 -- -- 62
2017-11-04 19:00:00 13.5 13 Oeste 28 Oeste 0 -- -- 62
2017-11-04 18:00:00 14 8 Sudoeste 27 Oeste 0 -- -- 59
2017-11-04 17:00:00 14.3 17 Noroeste 38 Noroeste 0 -- -- 69
2017-11-04 16:00:00 16.9 8 Este 17 Nordeste 0 -- -- 56
2017-11-04 15:00:00 16.8 18 Oeste 31 Oeste 0 -- -- 50
2017-11-04 14:00:00 17.8 6 Sudeste 17 Sudoeste 0 -- -- 46
2017-11-04 13:00:00 17.7 9 Sur 14 Sur 0 -- -- 48
2017-11-04 12:00:00 16.8 5 Sudoeste 13 Sudoeste 0 -- -- 54
2017-11-04 11:00:00 16.7 4 Sur 9 Este 0 -- -- 62
2017-11-04 10:00:00 16.1 4 Sur 14 Oeste 0 -- -- 70
2017-11-04 09:00:00 13.6 2 Norte 5 Nordeste 0 -- -- 79
2017-11-04 08:00:00 12.4 0 Calma 5 Sur 0 -- -- 76
2017-11-04 07:00:00 12.1 0 Calma 12 Este 0 -- -- 77
2017-11-04 06:00:00 12.6 9 Sur 32 Sudoeste 1.2 -- -- 78
2017-11-04 05:00:00 12.8 12 Oeste 23 Oeste 0.4 -- -- 73
2017-11-04 04:00:00 12.1 5 Este 8 Este 0 -- -- 70
2017-11-04 03:00:00 12.1 6 Este 10 Este 0 -- -- 71
2017-11-04 02:00:00 12 5 Este 9 Nordeste 0 -- -- 75
2017-11-04 01:00:00 12.3 2 Sudeste 8 Este 0 -- -- 74
2017-11-04 00:00:00 12.4 4 Este 6 Este 0 -- -- 74
2017-11-03 23:00:00 13.1 4 Sudeste 5 Sudeste 0 -- -- 71
2017-11-03 22:00:00 13 0 Calma 8 Sur 0 -- -- 70
2017-11-03 21:00:00 14 2 Oeste 6 Oeste 0 -- -- 65
2017-11-03 20:00:00 15 0 Calma 11 Este 0 -- -- 61
2017-11-03 19:00:00 15.6 5 Nordeste 14 Norte 0 -- -- 60
2017-11-03 18:00:00 16.4 6 Norte 21 Norte 0 -- -- 58
2017-11-03 17:00:00 17.7 10 Norte 22 Nordeste 0 -- -- 53
2017-11-03 16:00:00 18.9 13 Nordeste 29 Este 0 -- -- 48
2017-11-03 15:00:00 21.5 6 Nordeste 20 Este 0 -- -- 38
2017-11-03 14:00:00 20.3 6 Nordeste 22 Nordeste 0 -- -- 42
2017-11-03 13:00:00 21.5 9 Este 16 Este 0 -- -- 37
2017-11-03 12:00:00 19.1 3 Este 10 Este 0 -- -- 37
2017-11-03 11:00:00 16.2 4 Sudeste 9 Este 0 -- -- 47
2017-11-03 10:00:00 13 3 Sudeste 11 Este 0 -- -- 55
2017-11-03 09:00:00 10.8 5 Este 9 Este 0 -- -- 64
2017-11-03 08:00:00 9.5 8 Este 10 Este 0 -- -- 71
2017-11-03 07:00:00 9.4 4 Este 9 Nordeste 0 -- -- 72
2017-11-03 06:00:00 9.9 4 Este 11 Este 0 -- -- 73
2017-11-03 05:00:00 10 7 Nordeste 10 Nordeste 0 -- -- 73
2017-11-03 04:00:00 10.2 2 Este 8 Este 0 -- -- 77
2017-11-03 03:00:00 10.8 3 Este 8 Sudeste 0 -- -- 75
2017-11-03 02:00:00 11.2 3 Sudeste 6 Este 0 -- -- 79
2017-11-03 01:00:00 11.9 3 Sudeste 6 Sudeste 0 -- -- 78
2017-11-03 00:00:00 12.2 3 Este 5 Este 0 -- -- 79
2017-11-02 23:00:00 12.7 0 Calma 4 Sur 0 -- -- 78
2017-11-02 22:00:00 13.1 4 Sudoeste 6 Sudoeste 0 -- -- 77
2017-11-02 21:00:00 13.7 3 Este 6 Este 0 -- -- 74
2017-11-02 20:00:00 14.2 5 Este 18 Este 0 -- -- 71
2017-11-02 19:00:00 15.4 9 Este 17 Sudeste 0 -- -- 67
2017-11-02 18:00:00 16.9 7 Sudeste 23 Este 0 -- -- 63
2017-11-02 17:00:00 17.9 5 Nordeste 21 Norte 0 -- -- 58
2017-11-02 16:00:00 19.9 9 Norte 22 Norte 0 -- -- 51
2017-11-02 15:00:00 20.8 11 Nordeste 22 Nordeste 0 -- -- 48
2017-11-02 14:00:00 20.8 8 Nordeste 19 Nordeste 0 -- -- 47
2017-11-02 13:00:00 19.3 4 Este 13 Este 0 -- -- 49
2017-11-02 12:00:00 16.4 4 Sur 8 Sudeste 0 -- -- 55
2017-11-02 11:00:00 13.9 4 Sudeste 9 Este 0 -- -- 63
2017-11-02 10:00:00 11.6 3 Este 10 Este 0 -- -- 70
2017-11-02 09:00:00 10.5 5 Este 11 Sudeste 0 -- -- 74
2017-11-02 08:00:00 10.1 5 Este 10 Sudeste 0 -- -- 75
2017-11-02 07:00:00 9.9 0 Calma 9 Sur 0 -- -- 77
2017-11-02 06:00:00 9.9 3 Sur 8 Sur 0 -- -- 76
2017-11-02 05:00:00 9.9 2 Sudoeste 9 Sudeste 0 -- -- 77
2017-11-02 04:00:00 10 2 Sudeste 11 Sudeste 0 -- -- 78
2017-11-02 03:00:00 10.6 6 Sudeste 9 Sudeste 0 -- -- 77
2017-11-02 02:00:00 10.7 0 Calma 9 Sur 0 -- -- 81
2017-11-02 01:00:00 11.1 3 Sur 10 Sudeste 0 -- -- 83
2017-11-02 00:00:00 11.8 5 Sudeste 10 Sudeste 0 -- -- 82
2017-11-01 23:00:00 12.4 5 Sudeste 12 Sudoeste 0 -- -- 82
2017-11-01 22:00:00 12.8 6 Sur 11 Sudoeste 0 -- -- 81
2017-11-01 21:00:00 13.6 5 Sudeste 13 Sudeste 0 -- -- 79
2017-11-01 20:00:00 14.1 9 Este 15 Este 0 -- -- 78
2017-11-01 19:00:00 14.8 9 Este 17 Este 0 -- -- 76
2017-11-01 18:00:00 16.2 9 Este 22 Este 0 -- -- 69
2017-11-01 17:00:00 17.9 8 Nordeste 27 Este 0 -- -- 56
2017-11-01 16:00:00 20.4 8 Este 23 Este 0 -- -- 49
2017-11-01 15:00:00 19.9 12 Este 26 Este 0 -- -- 48
2017-11-01 14:00:00 21.3 14 Este 23 Este 0 -- -- 39
2017-11-01 13:00:00 20.1 11 Este 22 Este 0 -- -- 41
2017-11-01 12:00:00 19.5 6 Sudeste 13 Sur 0 -- -- 45
2017-11-01 11:00:00 18 6 Sur 12 Sur 0 -- -- 47
2017-11-01 10:00:00 15 4 Sudeste 8 Sudeste 0 -- -- 57
2017-11-01 09:00:00 12.4 3 Sudeste 6 Sudeste 0 -- -- 67
2017-11-01 08:00:00 10.1 2 Sudoeste 6 Sur 0 -- -- 77
2017-11-01 07:00:00 9.7 2 Sudeste 8 Sudeste 0 -- -- 78
2017-11-01 06:00:00 10.1 0 Calma 10 Sur 0 -- -- 78
2017-11-01 05:00:00 10.4 3 Sudeste 13 Sur 0 -- -- 79
2017-11-01 04:00:00 10.5 3 Sur 6 Sur 0 -- -- 78
2017-11-01 03:00:00 10.3 0 Calma 6 Sudeste 0 -- -- 79
2017-11-01 02:00:00 10.4 4 Sur 8 Sur 0 -- -- 80
2017-11-01 01:00:00 10.5 3 Sudeste 10 Sudeste 0 -- -- 80
2017-11-01 00:00:00 10.8 3 Sudeste 9 Sudeste 0 -- -- 80
2017-10-31 23:00:00 11 4 Sur 7 Sudoeste 0 -- -- 82
2017-10-31 22:00:00 11.4 4 Sur 8 Sur 0 -- -- 81
2017-10-31 21:00:00 12 6 Sudoeste 9 Sudoeste 0 -- -- 79
2017-10-31 20:00:00 12.3 5 Sudeste 13 Este 0 -- -- 78
2017-10-31 19:00:00 12.8 8 Este 17 Sudeste 0 -- -- 75
2017-10-31 18:00:00 14 10 Este 19 Este 0 -- -- 68
2017-10-31 17:00:00 17 6 Este 19 Norte 0 -- -- 49
2017-10-31 16:00:00 17.4 8 Norte 24 Nordeste 0 -- -- 44
2017-10-31 15:00:00 16.3 13 Nordeste 25 Nordeste 0 -- -- 46
2017-10-31 14:00:00 17 11 Nordeste 22 Norte 0 -- -- 45
2017-10-31 13:00:00 15.9 8 Norte 17 Norte 0 -- -- 46
2017-10-31 12:00:00 14.8 4 Norte 10 Norte 0 -- -- 49
2017-10-31 11:00:00 11.9 3 Norte 11 Norte 0 -- -- 57
2017-10-31 10:00:00 9.9 4 Este 7 Este 0 -- -- 64
2017-10-31 09:00:00 7.2 3 Este 6 Nordeste 0 -- -- 74
2017-10-31 08:00:00 5.6 3 Este 4 Nordeste 0 -- -- 81
2017-10-31 07:00:00 5 0 Calma 3 Oeste 0 -- -- 82
2017-10-31 06:00:00 5.1 0 Calma 4 Oeste 0 -- -- 82
2017-10-31 05:00:00 5.8 2 Sur 5 Sudeste 0 -- -- 80
2017-10-31 04:00:00 6.5 4 Este 22 Sudoeste 0 -- -- 75
2017-10-31 03:00:00 7.3 11 Oeste 26 Sudoeste 0 -- -- 70
2017-10-31 02:00:00 7.8 2 Sudoeste 16 Noroeste 0 -- -- 71
2017-10-31 01:00:00 8.2 4 Sudoeste 12 Sudoeste 0 -- -- 71
2017-10-31 00:00:00 8.9 8 Sudoeste 23 Oeste 0 -- -- 70
2017-10-30 23:00:00 9.5 6 Sudoeste 26 Oeste 0 -- -- 69
2017-10-30 22:00:00 10.2 10 Sudoeste 37 Noroeste 0 -- -- 70
2017-10-30 21:00:00 11.1 12 Oeste 46 Oeste 0 -- -- 69
2017-10-30 20:00:00 11.8 23 Oeste 48 Oeste 0 -- -- 67
2017-10-30 19:00:00 13.4 15 Noroeste 32 Noroeste 0 -- -- 61
2017-10-30 18:00:00 14.6 13 Noroeste 29 Oeste 0 -- -- 58
2017-10-30 17:00:00 16.5 15 Oeste 37 Oeste 0 -- -- 52
2017-10-30 16:00:00 17.7 18 Oeste 40 Noroeste 0 -- -- 49
2017-10-30 15:00:00 18.4 14 Noroeste 32 Oeste 0 -- -- 47
2017-10-30 14:00:00 17.5 14 Oeste 36 Oeste 0 -- -- 50
2017-10-30 13:00:00 15.9 19 Oeste 33 Noroeste 0 -- -- 55
2017-10-30 12:00:00 15 14 Oeste 38 Noroeste 0 -- -- 59
2017-10-30 11:00:00 13 15 Oeste 33 Oeste 0 -- -- 65
2017-10-30 10:00:00 12.2 10 Oeste 35 Oeste 0 -- -- 68
2017-10-30 09:00:00 11.7 8 Oeste 29 Noroeste 0 -- -- 70
2017-10-30 08:00:00 11.2 13 Oeste 38 Norte 0 -- -- 71
2017-10-30 07:00:00 11 18 Oeste 42 Norte 0 -- -- 72
2017-10-30 06:00:00 11.4 11 Oeste 38 Oeste 0 -- -- 72
2017-10-30 05:00:00 11.5 12 Noroeste 36 Oeste 0 -- -- 73
2017-10-30 04:00:00 11.4 17 Noroeste 50 Noroeste 0 -- -- 73
2017-10-30 03:00:00 11.3 20 Noroeste 46 Noroeste 0 -- -- 73
2017-10-30 02:00:00 11.4 18 Oeste 53 Noroeste 0 -- -- 72
2017-10-30 01:00:00 11.5 24 Oeste 54 Oeste 0 -- -- 72
2017-10-30 00:00:00 11.3 18 Oeste 49 Sudoeste 0 -- -- 72
2017-10-29 23:00:00 11.2 23 Oeste 51 Oeste 0 -- -- 72
2017-10-29 22:00:00 11.1 18 Oeste 47 Oeste 0 -- -- 72
2017-10-29 21:00:00 11.6 22 Noroeste 47 Noroeste 0 -- -- 70
2017-10-29 20:00:00 12.9 9 Oeste 35 Oeste 0 -- -- 58
2017-10-29 19:00:00 14 15 Noroeste 36 Oeste 0 -- -- 50
2017-10-29 18:00:00 15.5 9 Oeste 36 Noroeste 0 -- -- 46
2017-10-29 17:00:00 18.1 16 Noroeste 37 Noroeste 0 -- -- 35
2017-10-29 16:00:00 18.9 14 Noroeste 30 Oeste 0 -- -- 33
2017-10-29 15:00:00 18.6 12 Noroeste 39 Oeste 0 -- -- 34
2017-10-29 14:00:00 18.1 15 Noroeste 32 Noroeste 0 -- -- 35
2017-10-29 13:00:00 16.8 15 Noroeste 33 Noroeste 0 -- -- 36
2017-10-29 12:00:00 15.7 15 Noroeste 28 Oeste 0 -- -- 37
2017-10-29 11:00:00 14.7 7 Oeste 32 Noroeste 0 -- -- 39
2017-10-29 10:00:00 11.6 3 Sudoeste 23 Oeste 0 -- -- 54
2017-10-29 09:00:00 8.4 3 Este 6 Este 0 -- -- 68
2017-10-29 08:00:00 7.3 2 Este 5 Este 0 -- -- 73
2017-10-29 07:00:00 6.7 3 Este 5 Sudeste 0 -- -- 76
2017-10-29 06:00:00 7 2 Sudeste 5 Este 0 -- -- 75
2017-10-29 05:00:00 8 4 Este 7 Este 0 -- -- 71
2017-10-29 04:00:00 9.1 0 Calma 9 Oeste 0 -- -- 66
2017-10-29 03:00:00 10.2 4 Oeste 26 Norte 0 -- -- 58
2017-10-29 02:00:00 10.4 6 Este 23 Este 0 -- -- 59
2017-10-29 01:00:00 11 8 Sudeste 38 Noroeste 0 -- -- 64
2017-10-29 00:00:00 11.5 13 Oeste 40 Noroeste 0 -- -- 65
2017-10-28 23:00:00 12.2 17 Oeste 32 Noroeste 0 -- -- 64
2017-10-28 22:00:00 13 15 Oeste 47 Noroeste 0 -- -- 61
2017-10-28 21:00:00 13.6 24 Noroeste 41 Norte 0 -- -- 61
2017-10-28 20:00:00 15.1 23 Noroeste 36 Noroeste 0 -- -- 57
2017-10-28 19:00:00 16.7 13 Noroeste 31 Noroeste 0 -- -- 49
2017-10-28 18:00:00 18.9 13 Oeste 31 Noroeste 0 -- -- 44
2017-10-28 17:00:00 19.7 12 Noroeste 34 Oeste 0 -- -- 44
2017-10-28 16:00:00 19.7 9 Noroeste 37 Oeste 0 -- -- 45
2017-10-28 15:00:00 18.5 15 Oeste 30 Oeste 0 -- -- 48
2017-10-28 14:00:00 18 11 Oeste 31 Oeste 0 -- -- 52
2017-10-28 13:00:00 17.4 12 Noroeste 33 Noroeste -- -- -- 55
2017-10-28 12:00:00 15.5 12 Oeste 39 Sudoeste 0 -- -- 60
2017-10-28 11:00:00 14 17 Oeste 43 Oeste 0 -- -- 66
2017-10-28 10:00:00 12.3 24 Oeste 46 Oeste 0 -- -- 72
2017-10-28 09:00:00 11.8 11 Noroeste 34 Noroeste 0 -- -- 74
2017-10-28 08:00:00 11.9 14 Noroeste 37 Oeste 0 -- -- 74
2017-10-28 07:00:00 12.1 9 Oeste 36 Oeste 0 -- -- 73
2017-10-28 06:00:00 12.5 11 Noroeste 39 Oeste 0 -- -- 71
2017-10-28 05:00:00 12.7 12 Oeste 49 Noroeste 0 -- -- 72
2017-10-28 04:00:00 13.5 14 Oeste 49 Oeste 0 -- -- 70
2017-10-28 03:00:00 13.6 18 Noroeste 46 Oeste 0 -- -- 69
2017-10-28 02:00:00 13.4 22 Oeste 51 Noroeste 0 -- -- 69
2017-10-28 01:00:00 13.5 20 Oeste 42 Sudoeste 0 -- -- 69
2017-10-28 00:00:00 14 17 Oeste 48 Noroeste 0 -- -- 69
2017-10-27 23:00:00 14.2 5 Nordeste 42 Oeste 0 -- -- 67
2017-10-27 22:00:00 14.7 7 Sudeste 47 Oeste 0 -- -- 64
2017-10-27 21:00:00 15.4 6 Oeste 44 Noroeste 0 -- -- 62
2017-10-27 20:00:00 16.8 10 Noroeste 32 Oeste 0 -- -- 57
2017-10-27 19:00:00 18.7 17 Noroeste 50 Noroeste 0 -- -- 49
2017-10-27 18:00:00 21.9 18 Oeste 54 Noroeste 0 -- -- 39
2017-10-27 17:00:00 24 23 Noroeste 49 Norte 0 -- -- 31
2017-10-27 16:00:00 24.8 11 Sudoeste 42 Noroeste 0 -- -- 30
2017-10-27 15:00:00 24.3 14 Noroeste 37 Noroeste 0 -- -- 32
2017-10-27 14:00:00 22.7 12 Noroeste 42 Norte 0 -- -- 36
2017-10-27 13:00:00 21.8 20 Noroeste 43 Oeste 0 -- -- 37
2017-10-27 12:00:00 21.2 13 Noroeste 31 Noroeste 0 -- -- 37
2017-10-27 11:00:00 19.7 11 Oeste 26 Oeste 0 -- -- 39
2017-10-27 10:00:00 15.3 3 Sudoeste 6 Oeste 0 -- -- 48
2017-10-27 09:00:00 13.5 4 Este 9 Este 0 -- -- 51
2017-10-27 08:00:00 12.9 5 Este 12 Este 0 -- -- 53
2017-10-27 07:00:00 12.7 6 Este 10 Este 0 -- -- 54
2017-10-27 06:00:00 12.7 9 Este 12 Este 0 -- -- 54
2017-10-27 05:00:00 13.5 7 Nordeste 11 Este 0 -- -- 52
2017-10-27 04:00:00 14.1 3 Sudeste 9 Este 0 -- -- 50
2017-10-27 03:00:00 14.2 8 Este 10 Este 0 -- -- 49
2017-10-27 02:00:00 15.8 4 Este 6 Nordeste 0 -- -- 45
2017-10-27 01:00:00 15.5 5 Este 10 Este 0 -- -- 45
2017-10-27 00:00:00 16.2 4 Este 6 Este 0 -- -- 44
2017-10-26 23:00:00 17.3 2 Sudeste 6 Este 0 -- -- 42
2017-10-26 22:00:00 19.1 3 Este 4 Este 0 -- -- 38
2017-10-26 21:00:00 20.3 3 Nordeste 5 Nordeste 0 -- -- 37
2017-10-26 20:00:00 21 0 Calma 13 Norte 0 -- -- 35
2017-10-26 19:00:00 23.1 7 Norte 15 Norte 0 -- -- 32
2017-10-26 18:00:00 25.6 6 Nordeste 17 Nordeste 0 -- -- 27
2017-10-26 17:00:00 25.4 13 Nordeste 24 Nordeste 0 -- -- 28
2017-10-26 16:00:00 26.6 5 Nordeste 20 Norte 0 -- -- 28
2017-10-26 15:00:00 26.4 7 Nordeste 26 Nordeste 0 -- -- 27
2017-10-26 14:00:00 25.8 8 Nordeste 21 Nordeste 0 -- -- 28
2017-10-26 13:00:00 25.7 4 Oeste 12 Nordeste 0 -- -- 28
2017-10-26 12:00:00 23 4 Este 8 Este 0 -- -- 31
2017-10-26 11:00:00 20.2 3 Sudeste 6 Este 0 -- -- 38
2017-10-26 10:00:00 16 5 Este 9 Este 0 -- -- 45
2017-10-26 09:00:00 14 5 Este 9 Este 0 -- -- 50
2017-10-26 08:00:00 13.3 5 Este 8 Este 0 -- -- 51
2017-10-26 07:00:00 13.5 7 Este 11 Este 0 -- -- 51
2017-10-26 06:00:00 14 8 Este 12 Nordeste 0 -- -- 51
2017-10-26 05:00:00 14.4 9 Este 10 Este 0 -- -- 51
2017-10-26 04:00:00 15.2 8 Este 12 Este 0 -- -- 50
2017-10-26 03:00:00 16 7 Este 9 Este 0 -- -- 49
2017-10-26 02:00:00 16.8 4 Este 6 Este 0 -- -- 48
2017-10-26 01:00:00 16.7 4 Este 10 Este 0 -- -- 49
2017-10-26 00:00:00 16.9 4 Este 9 Este 0 -- -- 50
2017-10-25 23:00:00 17.3 5 Sudeste 8 Este 0 -- -- 52
2017-10-25 22:00:00 18.8 3 Sudeste 6 Este 0 -- -- 49
2017-10-25 21:00:00 20.1 0 Calma 4 Sudeste 0 -- -- 39
2017-10-25 20:00:00 20.8 0 Calma 14 Norte 0 -- -- 37
2017-10-25 19:00:00 22.6 6 Norte 17 Norte 0 -- -- 33
2017-10-25 18:00:00 24.5 9 Nordeste 21 Nordeste 0 -- -- 30
2017-10-25 17:00:00 24.8 13 Nordeste 28 Norte 0 -- -- 30
2017-10-25 16:00:00 26 14 Norte 26 Nordeste 0 -- -- 28
2017-10-25 15:00:00 27.5 8 Norte 19 Nordeste 0 -- -- 26
2017-10-25 14:00:00 27.4 5 Este 13 Este 0 -- -- 25
2017-10-25 13:00:00 25.8 4 Sudeste 9 Sur 0 -- -- 25
2017-10-25 12:00:00 23 4 Sudeste 8 Este 0 -- -- 30
2017-10-25 11:00:00 19.1 4 Este 7 Este 0 -- -- 37
2017-10-25 10:00:00 15.4 5 Este 10 Este 0 -- -- 43
2017-10-25 09:00:00 13.1 6 Este 9 Este 0 -- -- 49
2017-10-25 08:00:00 12 7 Este 9 Nordeste 0 -- -- 51
2017-10-25 07:00:00 12.8 5 Este 6 Este 0 -- -- 48
2017-10-25 06:00:00 13.1 4 Este 9 Este 0 -- -- 46
2017-10-25 05:00:00 13.4 6 Este 9 Este 0 -- -- 45
2017-10-25 04:00:00 14.1 5 Este 8 Este 0 -- -- 43
2017-10-25 03:00:00 13.8 8 Este 11 Este 0 -- -- 43
2017-10-25 02:00:00 14.4 6 Este 13 Este 0 -- -- 39
2017-10-25 01:00:00 14.7 7 Este 10 Este 0 -- -- 37
2017-10-25 00:00:00 14.8 9 Este 12 Este 0 -- -- 36